Maldives Meteorological Service

METAR

Station
VRMM
METAR VRMM 172000Z 27017KT 6000 -SHRA SCT016 SCT017CB 26/24 Q1009 CB SE,W TEMPO 27018G37KT 4000 TSRA=
VRMH
METAR VRMH 172000Z 29014KT 9000 -RA FEW017TCU OVC100 27/24 Q1009=
VRMK
METAR VRMK 172000Z 18008KT 9999 FEW018TCU BKN260 28/25 Q1009=
VRMT
METAR VRMT 172000Z 17011KT 9999 FEW017 FEW018CB BKN260 27/23 Q1009 CB SE,NW=
VRMG
METAR VRMG 172000Z 19011KT 9999 FEW017 FEW018CB BKN260 27/24 Q1010 CB SW TEMPO 5000 –TSRA=
Last Updated : 2018-08-18 01:19:16

SPECI

Station
VRMM
SPECI VRMM 171852Z 28015KT 9999 SCT016 FEW017CB BKN250 27/25 Q1010 RETS CB NE,SE TEMPO 27018G37KT 4000 TSRA=
VRMH
VRMK
VRMT
SPECI VRMT 171852Z 17011KT 9999 FEW017 FEW018CB BKN260 27/23 Q1010 RETS CB N=
VRMG
Last Updated : 2018-08-18 01:19:16